Time;durP1;ratioP1;P1;durP2;ratioP2;P2;SDS_P1;SDS_P2;PMS_P1;PMS_P2;Temp;Humidity;BMP_temperature;BMP_pressure;BME280_temperature;BME280_humidity;BME280_pressure;Samples;Min_cycle;Max_cycle;Signal;HPM_P1;HPM_P2
2023/12/24 00:01:52;;;;;;;447.50;422.20;;;;;;;;;;5010529;28;20445;-39
2023/12/24 00:04:19;;;;;;;461.30;436.57;;;;;;;;;;5009931;28;20485;-39
2023/12/24 00:06:47;;;;;;;457.50;432.43;;;;;;;;;;4995859;28;20437;-39
2023/12/24 00:09:15;;;;;;;458.53;434.07;;;;;;;;;;5000483;28;20448;-40
2023/12/24 00:11:43;;;;;;;477.27;451.73;;;;;;;;;;5010733;28;20433;-40
2023/12/24 00:14:11;;;;;;;451.73;426.73;;;;;;;;;;4993455;28;20493;-40
2023/12/24 00:16:40;;;;;;;453.03;427.87;;;;;;;;;;5010468;28;20440;-39
2023/12/24 00:19:07;;;;;;;470.93;445.43;;;;;;;;;;5001419;28;20956;-40
2023/12/24 00:21:35;;;;;;;471.00;445.70;;;;;;;;;;4995447;28;20437;-39
2023/12/24 00:24:02;;;;;;;463.33;437.93;;;;;;;;;;5004375;28;20501;-38
2023/12/24 00:26:31;;;;;;;453.20;427.97;;;;;;;;;;4997794;28;20519;-39
2023/12/24 00:29:00;;;;;;;451.87;426.13;;;;;;;;;;5005861;28;20457;-40
2023/12/24 00:31:27;;;;;;;457.97;432.83;;;;;;;;;;4990022;28;20483;-41
2023/12/24 00:33:55;;;;;;;453.17;428.20;;;;;;;;;;5005559;28;20944;-39
2023/12/24 00:36:23;;;;;;;449.30;424.07;;;;;;;;;;5004094;28;20461;-40
2023/12/24 00:38:51;;;;;;;440.60;415.60;;;;;;;;;;5005823;28;20788;-40
2023/12/24 00:41:18;;;;;;;452.17;427.40;;;;;;;;;;5003528;28;20437;-39
2023/12/24 00:43:46;;;;;;;451.97;427.17;;;;;;;;;;5002138;28;20559;-41
2023/12/24 00:46:15;;;;;;;454.73;429.83;;;;;;;;;;5010851;28;20473;-41
2023/12/24 00:48:43;;;;;;;460.97;435.97;;;;;;;;;;5013608;28;20441;-39
2023/12/24 00:51:11;;;;;;;451.73;427.17;;;;;;;;;;5005428;28;20976;-40
2023/12/24 00:53:39;;;;;;;448.07;423.60;;;;;;;;;;5000154;28;20438;-41
2023/12/24 00:56:06;;;;;;;442.47;417.43;;;;;;;;;;5009667;28;20496;-39
2023/12/24 00:58:34;;;;;;;449.57;424.83;;;;;;;;;;5005291;28;20437;-42
2023/12/24 01:01:02;;;;;;;450.53;425.70;;;;;;;;;;5004510;28;20946;-39
2023/12/24 01:03:31;;;;;;;447.10;422.60;;;;;;;;;;5072519;23;20479;-44
2023/12/24 01:05:58;;;;;;;443.20;417.90;;;;;;;;;;5044609;28;20547;-43
2023/12/24 01:08:26;;;;;;;463.37;438.40;;;;;;;;;;5043739;28;20435;-42
2023/12/24 01:10:53;;;;;;;452.90;427.90;;;;;;;;;;5029671;28;20444;-42
2023/12/24 01:13:21;;;;;;;438.60;413.60;;;;;;;;;;5040763;28;20880;-40
2023/12/24 01:15:49;;;;;;;423.47;398.97;;;;;;;;;;5039487;28;20514;-40
2023/12/24 01:18:17;;;;;;;439.00;414.10;;;;;;;;;;5050337;28;20547;-40
2023/12/24 01:20:46;;;;;;;444.83;420.17;;;;;;;;;;5050983;28;20508;-43
2023/12/24 01:23:13;;;;;;;454.20;429.50;;;;;;;;;;5052159;28;20465;-43
2023/12/24 01:25:41;;;;;;;453.37;428.13;;;;;;;;;;5038184;28;20651;-40
2023/12/24 01:28:09;;;;;;;461.13;436.77;;;;;;;;;;5032536;28;20493;-43
2023/12/24 01:30:36;;;;;;;458.30;434.03;;;;;;;;;;5032344;28;20986;-42
2023/12/24 01:33:04;;;;;;;464.43;439.70;;;;;;;;;;5031979;28;20460;-43
2023/12/24 01:35:32;;;;;;;462.67;438.17;;;;;;;;;;5041873;28;20550;-42
2023/12/24 01:38:01;;;;;;;467.00;442.83;;;;;;;;;;5051966;28;20934;-41
2023/12/24 01:40:29;;;;;;;472.07;448.07;;;;;;;;;;5051986;28;20436;-43
2023/12/24 01:42:56;;;;;;;467.20;443.03;;;;;;;;;;5051381;28;20542;-42
2023/12/24 01:45:24;;;;;;;477.70;453.60;;;;;;;;;;5051199;28;20470;-41
2023/12/24 01:47:51;;;;;;;478.57;454.07;;;;;;;;;;5052176;28;20438;-41
2023/12/24 01:50:20;;;;;;;471.70;447.50;;;;;;;;;;5051849;28;20862;-41
2023/12/24 01:52:48;;;;;;;440.73;416.73;;;;;;;;;;5051853;28;20466;-43
2023/12/24 01:55:17;;;;;;;440.60;416.30;;;;;;;;;;5050979;28;20493;-42
2023/12/24 01:57:45;;;;;;;459.47;434.63;;;;;;;;;;5051444;28;20439;-43
2023/12/24 02:00:13;;;;;;;442.03;417.70;;;;;;;;;;5051382;28;20443;-44
2023/12/24 02:02:42;;;;;;;431.93;407.23;;;;;;;;;;5051660;28;20548;-43
2023/12/24 02:05:11;;;;;;;435.90;411.43;;;;;;;;;;5051066;28;20481;-41
2023/12/24 02:07:39;;;;;;;435.60;411.30;;;;;;;;;;5051765;28;20569;-41
2023/12/24 02:10:08;;;;;;;431.90;407.87;;;;;;;;;;5051512;28;20436;-43
2023/12/24 02:12:37;;;;;;;435.43;411.63;;;;;;;;;;5051360;28;20455;-43
2023/12/24 02:15:05;;;;;;;442.60;418.70;;;;;;;;;;5050818;28;20459;-42
2023/12/24 02:17:33;;;;;;;442.83;419.03;;;;;;;;;;5034668;28;20466;-44
2023/12/24 02:20:01;;;;;;;446.17;422.37;;;;;;;;;;5050366;28;20443;-43
2023/12/24 02:22:30;;;;;;;470.90;446.90;;;;;;;;;;5050535;28;20520;-45
2023/12/24 02:24:57;;;;;;;459.57;435.63;;;;;;;;;;5050297;28;20570;-43
2023/12/24 02:27:27;;;;;;;479.93;455.20;;;;;;;;;;5051149;28;20435;-43
2023/12/24 02:29:57;;;;;;;462.57;438.77;;;;;;;;;;5050949;28;21006;-43
2023/12/24 02:32:25;;;;;;;466.87;442.97;;;;;;;;;;5050619;28;20995;-41
2023/12/24 02:34:54;;;;;;;476.43;452.50;;;;;;;;;;5050620;28;20471;-45
2023/12/24 02:37:22;;;;;;;466.30;442.60;;;;;;;;;;5051072;28;20432;-43
2023/12/24 02:39:51;;;;;;;447.10;423.23;;;;;;;;;;5050825;28;20435;-43
2023/12/24 02:42:18;;;;;;;439.30;415.40;;;;;;;;;;5051230;28;20435;-42
2023/12/24 02:44:46;;;;;;;449.90;425.87;;;;;;;;;;5050508;28;20479;-41
2023/12/24 02:47:13;;;;;;;453.70;429.50;;;;;;;;;;5049575;28;20435;-41
2023/12/24 02:49:41;;;;;;;423.33;399.33;;;;;;;;;;5050669;28;20439;-43
2023/12/24 02:52:09;;;;;;;432.10;408.30;;;;;;;;;;5050471;28;20435;-41
2023/12/24 02:54:36;;;;;;;438.70;414.90;;;;;;;;;;5042597;28;20981;-42
2023/12/24 02:57:05;;;;;;;446.33;422.30;;;;;;;;;;5050283;28;20435;-43
2023/12/24 02:59:33;;;;;;;436.50;412.63;;;;;;;;;;5050485;28;20436;-41
2023/12/24 03:02:01;;;;;;;430.10;406.10;;;;;;;;;;5050435;28;20435;-43
2023/12/24 03:04:28;;;;;;;446.30;422.20;;;;;;;;;;5049694;28;20459;-42
2023/12/24 03:06:56;;;;;;;419.10;395.20;;;;;;;;;;5050573;28;20435;-41
2023/12/24 03:09:23;;;;;;;447.53;423.07;;;;;;;;;;5050948;28;20440;-44
2023/12/24 03:11:51;;;;;;;452.70;428.07;;;;;;;;;;5051037;28;20437;-43
2023/12/24 03:14:20;;;;;;;457.27;433.27;;;;;;;;;;5049783;28;20988;-43
2023/12/24 03:16:48;;;;;;;462.23;437.90;;;;;;;;;;5050776;28;20428;-41
2023/12/24 03:19:15;;;;;;;458.40;434.40;;;;;;;;;;5050992;28;20463;-44
2023/12/24 03:21:43;;;;;;;468.33;444.43;;;;;;;;;;5051035;28;20431;-45
2023/12/24 03:24:11;;;;;;;465.73;441.83;;;;;;;;;;5049978;28;20861;-44
2023/12/24 03:26:38;;;;;;;465.87;442.07;;;;;;;;;;5042046;28;20507;-44
2023/12/24 03:29:07;;;;;;;464.47;441.00;;;;;;;;;;5050357;28;20949;-44
2023/12/24 03:31:36;;;;;;;472.63;447.90;;;;;;;;;;5050013;28;20943;-44
2023/12/24 03:34:04;;;;;;;466.87;443.23;;;;;;;;;;5050411;28;20756;-43
2023/12/24 03:36:32;;;;;;;462.90;438.67;;;;;;;;;;5050082;28;20458;-43
2023/12/24 03:39:00;;;;;;;465.27;441.10;;;;;;;;;;5050245;28;20435;-43
2023/12/24 03:41:27;;;;;;;479.20;454.80;;;;;;;;;;5050566;28;20467;-40
2023/12/24 03:43:55;;;;;;;434.40;410.83;;;;;;;;;;5049917;28;20451;-43
2023/12/24 03:46:23;;;;;;;451.90;428.50;;;;;;;;;;5049488;28;20471;-44
2023/12/24 03:48:52;;;;;;;453.43;429.77;;;;;;;;;;5049993;28;20666;-46
2023/12/24 03:51:20;;;;;;;438.53;415.00;;;;;;;;;;5050195;28;21176;-44
2023/12/24 03:53:47;;;;;;;438.00;414.73;;;;;;;;;;5050316;28;20529;-43
2023/12/24 03:56:15;;;;;;;438.27;415.27;;;;;;;;;;5049407;28;20838;-44
2023/12/24 03:58:42;;;;;;;427.73;405.40;;;;;;;;;;5052216;28;20972;-41
2023/12/24 04:01:10;;;;;;;412.90;391.50;;;;;;;;;;5053989;28;20438;-41
2023/12/24 04:03:38;;;;;;;424.13;403.00;;;;;;;;;;5053412;28;20482;-42
2023/12/24 04:06:13;;;;;;;423.33;402.37;;;;;;;;;;5053405;28;21036;-46
2023/12/24 04:08:41;;;;;;;414.90;395.07;;;;;;;;;;5054253;28;20454;-43
2023/12/24 04:11:12;;;;;;;392.93;374.37;;;;;;;;;;5054467;28;20459;-44
2023/12/24 04:13:40;;;;;;;391.10;373.03;;;;;;;;;;5045734;28;20545;-43
2023/12/24 04:16:07;;;;;;;383.33;365.80;;;;;;;;;;5052882;28;20520;-43
2023/12/24 04:18:35;;;;;;;339.60;323.10;;;;;;;;;;5053490;28;20449;-46
2023/12/24 04:21:03;;;;;;;354.63;338.93;;;;;;;;;;5053723;28;20431;-41
2023/12/24 04:23:32;;;;;;;343.27;327.27;;;;;;;;;;5052946;28;20455;-42
2023/12/24 04:25:59;;;;;;;337.33;321.73;;;;;;;;;;5053120;28;20475;-44
2023/12/24 04:28:27;;;;;;;345.90;330.20;;;;;;;;;;5053169;28;20434;-42
2023/12/24 04:30:54;;;;;;;350.33;334.73;;;;;;;;;;5053511;28;20428;-43
2023/12/24 04:33:22;;;;;;;344.40;329.10;;;;;;;;;;5052933;28;20582;-44
2023/12/24 04:35:50;;;;;;;352.13;336.53;;;;;;;;;;5052745;28;20498;-42
2023/12/24 04:38:17;;;;;;;347.50;331.90;;;;;;;;;;5053034;28;20455;-41
2023/12/24 04:40:46;;;;;;;328.30;312.70;;;;;;;;;;5053500;28;20466;-41
2023/12/24 04:43:14;;;;;;;337.87;322.57;;;;;;;;;;5053013;28;20463;-44
2023/12/24 04:45:41;;;;;;;353.13;336.97;;;;;;;;;;5052774;28;20466;-43
2023/12/24 04:48:09;;;;;;;348.30;332.30;;;;;;;;;;5053528;28;20854;-42
2023/12/24 04:50:37;;;;;;;345.20;328.67;;;;;;;;;;5053133;28;20435;-45
2023/12/24 04:53:04;;;;;;;358.50;341.50;;;;;;;;;;5052614;28;21044;-43
2023/12/24 04:55:32;;;;;;;359.47;342.17;;;;;;;;;;5052496;28;20977;-46
2023/12/24 04:58:01;;;;;;;355.93;338.33;;;;;;;;;;5053586;28;20461;-44
2023/12/24 05:00:28;;;;;;;361.90;343.50;;;;;;;;;;5053058;28;20501;-43
2023/12/24 05:02:56;;;;;;;362.53;343.73;;;;;;;;;;5052325;28;20969;-43
2023/12/24 05:05:24;;;;;;;349.93;331.20;;;;;;;;;;5052571;28;20528;-44
2023/12/24 05:07:52;;;;;;;357.87;339.60;;;;;;;;;;5053200;28;20489;-44
2023/12/24 05:10:20;;;;;;;362.73;344.40;;;;;;;;;;5051570;28;20435;-41
2023/12/24 05:12:48;;;;;;;360.07;340.50;;;;;;;;;;5052789;28;20487;-44
2023/12/24 05:15:17;;;;;;;358.50;339.50;;;;;;;;;;5052097;28;20978;-43
2023/12/24 05:17:44;;;;;;;363.80;344.20;;;;;;;;;;5052251;28;20458;-42
2023/12/24 05:20:12;;;;;;;361.87;342.63;;;;;;;;;;5052537;28;20489;-46
2023/12/24 05:22:40;;;;;;;366.20;346.00;;;;;;;;;;5052049;28;21013;-41
2023/12/24 05:25:08;;;;;;;370.93;350.73;;;;;;;;;;5052076;28;20478;-42
2023/12/24 05:27:35;;;;;;;371.00;351.80;;;;;;;;;;5052438;28;20475;-43
2023/12/24 05:30:03;;;;;;;373.63;354.07;;;;;;;;;;5052624;28;20428;-43
2023/12/24 05:32:32;;;;;;;371.87;352.57;;;;;;;;;;5052196;28;20455;-43
2023/12/24 05:35:01;;;;;;;378.23;358.50;;;;;;;;;;5052021;28;20467;-41
2023/12/24 05:37:29;;;;;;;365.23;345.40;;;;;;;;;;5051997;28;20519;-41
2023/12/24 05:39:56;;;;;;;372.60;353.30;;;;;;;;;;5052082;28;20946;-43
2023/12/24 05:42:24;;;;;;;371.10;352.17;;;;;;;;;;5051786;28;20465;-44
2023/12/24 05:44:51;;;;;;;376.57;357.10;;;;;;;;;;5051657;28;20534;-43
2023/12/24 05:47:19;;;;;;;372.97;353.23;;;;;;;;;;5051986;28;20915;-44
2023/12/24 05:49:48;;;;;;;375.73;355.60;;;;;;;;;;5044010;28;20521;-41
2023/12/24 05:52:15;;;;;;;378.07;358.00;;;;;;;;;;5052412;28;20793;-42
2023/12/24 05:54:43;;;;;;;373.40;353.27;;;;;;;;;;5051596;28;20464;-43
2023/12/24 05:57:10;;;;;;;386.23;365.40;;;;;;;;;;5052052;28;20795;-42
2023/12/24 05:59:38;;;;;;;377.07;357.10;;;;;;;;;;5051939;28;20453;-43
2023/12/24 06:02:06;;;;;;;392.53;371.93;;;;;;;;;;5051696;28;20431;-42
2023/12/24 06:04:33;;;;;;;392.40;371.73;;;;;;;;;;5051386;28;20452;-46
2023/12/24 06:07:04;;;;;;;378.93;358.77;;;;;;;;;;5051648;28;20831;-44
2023/12/24 06:09:32;;;;;;;383.30;362.97;;;;;;;;;;5051652;28;20984;-43
2023/12/24 06:11:59;;;;;;;391.33;371.10;;;;;;;;;;5051710;28;20438;-44
2023/12/24 06:14:27;;;;;;;383.23;363.23;;;;;;;;;;5050798;28;20450;-41
2023/12/24 06:16:54;;;;;;;382.67;362.57;;;;;;;;;;5051559;28;20438;-44
2023/12/24 06:19:22;;;;;;;392.40;371.43;;;;;;;;;;5051972;28;20437;-43
2023/12/24 06:21:50;;;;;;;397.53;376.93;;;;;;;;;;5050887;28;20431;-44
2023/12/24 06:24:21;;;;;;;382.00;361.90;;;;;;;;;;5050741;28;20451;-43
2023/12/24 06:26:48;;;;;;;385.40;364.90;;;;;;;;;;5051870;28;20455;-42
2023/12/24 06:29:16;;;;;;;391.03;370.43;;;;;;;;;;5051220;28;20484;-43
2023/12/24 06:31:44;;;;;;;385.83;365.03;;;;;;;;;;5051357;28;20443;-42
2023/12/24 06:34:12;;;;;;;384.00;362.70;;;;;;;;;;5050861;28;20460;-41
2023/12/24 06:36:39;;;;;;;381.00;360.70;;;;;;;;;;5050920;28;20815;-42
2023/12/24 06:39:07;;;;;;;373.77;353.77;;;;;;;;;;5050461;28;20435;-45
2023/12/24 06:41:36;;;;;;;381.83;361.63;;;;;;;;;;5051106;28;20788;-41
2023/12/24 06:44:03;;;;;;;380.70;360.30;;;;;;;;;;5051573;28;20508;-46
2023/12/24 06:46:31;;;;;;;382.43;361.43;;;;;;;;;;5049649;28;20495;-42
2023/12/24 06:48:59;;;;;;;383.47;362.90;;;;;;;;;;5050920;28;20961;-44
2023/12/24 06:51:27;;;;;;;372.20;352.10;;;;;;;;;;5050705;28;20505;-43
2023/12/24 06:53:54;;;;;;;398.17;377.23;;;;;;;;;;5051740;28;20478;-44
2023/12/24 06:56:22;;;;;;;397.57;377.00;;;;;;;;;;5050178;28;20466;-41
2023/12/24 06:58:50;;;;;;;390.73;370.53;;;;;;;;;;5042347;28;20956;-44
2023/12/24 07:01:18;;;;;;;379.77;359.57;;;;;;;;;;5050917;28;20435;-44
2023/12/24 07:03:46;;;;;;;379.00;359.10;;;;;;;;;;5050564;28;20482;-41
2023/12/24 07:06:13;;;;;;;355.67;335.50;;;;;;;;;;5050106;28;20874;-45
2023/12/24 07:08:41;;;;;;;364.87;344.10;;;;;;;;;;5050418;28;20483;-44
2023/12/24 07:11:09;;;;;;;348.83;328.50;;;;;;;;;;5051021;28;20493;-45
2023/12/24 07:13:37;;;;;;;363.17;343.03;;;;;;;;;;5050565;28;20459;-41
2023/12/24 07:16:08;;;;;;;367.17;347.37;;;;;;;;;;5050376;28;20546;-43
2023/12/24 07:18:36;;;;;;;362.67;342.60;;;;;;;;;;5050565;28;20431;-42
2023/12/24 07:21:03;;;;;;;365.43;345.23;;;;;;;;;;5050727;28;20915;-41
2023/12/24 07:23:31;;;;;;;358.93;339.10;;;;;;;;;;5050629;28;20501;-41
2023/12/24 07:25:59;;;;;;;377.67;357.47;;;;;;;;;;5050183;28;20530;-42
2023/12/24 07:28:26;;;;;;;387.10;367.10;;;;;;;;;;5049658;28;21035;-40
2023/12/24 07:30:54;;;;;;;362.00;342.40;;;;;;;;;;5050471;28;20519;-43
2023/12/24 07:33:23;;;;;;;380.00;360.07;;;;;;;;;;5052536;28;20459;-44
2023/12/24 07:35:51;;;;;;;364.97;345.23;;;;;;;;;;5054118;28;20487;-41
2023/12/24 07:38:18;;;;;;;378.17;358.67;;;;;;;;;;5055156;28;20502;-42
2023/12/24 07:40:46;;;;;;;376.03;356.83;;;;;;;;;;5054363;28;20435;-41
2023/12/24 07:43:14;;;;;;;366.67;347.67;;;;;;;;;;5071478;22;20573;-39
2023/12/24 07:45:42;;;;;;;378.97;359.50;;;;;;;;;;5049809;28;20463;-39
2023/12/24 07:48:12;;;;;;;371.60;352.23;;;;;;;;;;5047810;28;20478;-39
2023/12/24 07:50:42;;;;;;;346.13;327.00;;;;;;;;;;5043370;28;20807;-39
2023/12/24 07:53:09;;;;;;;345.90;326.40;;;;;;;;;;5047433;28;20462;-39
2023/12/24 07:55:37;;;;;;;352.30;333.07;;;;;;;;;;5042912;28;20470;-39
2023/12/24 07:58:05;;;;;;;347.37;327.73;;;;;;;;;;5042167;28;20485;-45
2023/12/24 08:00:32;;;;;;;363.80;344.40;;;;;;;;;;5045088;28;20440;-39
2023/12/24 08:03:00;;;;;;;347.50;328.30;;;;;;;;;;5046576;28;20870;-40
2023/12/24 08:05:28;;;;;;;359.70;339.90;;;;;;;;;;5036744;28;20942;-39
2023/12/24 08:07:57;;;;;;;366.27;346.53;;;;;;;;;;5034104;28;20506;-39
2023/12/24 08:10:25;;;;;;;380.17;360.17;;;;;;;;;;5049703;28;20531;-39
2023/12/24 08:12:52;;;;;;;378.37;358.77;;;;;;;;;;5041460;28;20534;-39
2023/12/24 08:15:31;;;;;;;386.27;366.30;;;;;;;;;;5041497;28;20460;-39
2023/12/24 08:17:58;;;;;;;377.77;357.97;;;;;;;;;;5053506;28;20443;-39
2023/12/24 08:20:26;;;;;;;375.83;356.43;;;;;;;;;;5044812;28;20482;-39
2023/12/24 08:22:54;;;;;;;375.90;356.50;;;;;;;;;;5044795;28;20517;-41
2023/12/24 08:25:23;;;;;;;380.60;360.57;;;;;;;;;;5045111;28;20558;-39
2023/12/24 08:27:51;;;;;;;388.47;367.80;;;;;;;;;;5044262;28;20548;-40
2023/12/24 08:30:19;;;;;;;365.87;345.40;;;;;;;;;;5045328;28;20441;-39
2023/12/24 08:32:46;;;;;;;348.63;329.17;;;;;;;;;;5036613;28;20895;-42
2023/12/24 08:35:14;;;;;;;369.87;350.20;;;;;;;;;;5044976;28;20469;-39
2023/12/24 08:37:42;;;;;;;358.40;338.70;;;;;;;;;;5052923;28;20435;-39
2023/12/24 08:40:10;;;;;;;348.03;328.47;;;;;;;;;;5053012;28;20496;-40
2023/12/24 08:42:39;;;;;;;358.80;339.23;;;;;;;;;;5052688;28;20830;-38
2023/12/24 08:45:08;;;;;;;362.30;342.60;;;;;;;;;;5039556;28;20459;-40
2023/12/24 08:47:36;;;;;;;362.13;341.63;;;;;;;;;;5050028;28;20443;-41
2023/12/24 08:50:04;;;;;;;361.13;341.90;;;;;;;;;;5052446;28;20435;-40
2023/12/24 08:52:33;;;;;;;362.60;341.17;;;;;;;;;;5043998;28;20455;-39
2023/12/24 08:55:00;;;;;;;368.27;348.07;;;;;;;;;;5044401;28;20554;-39
2023/12/24 08:57:28;;;;;;;364.50;344.90;;;;;;;;;;5052815;28;20447;-42
2023/12/24 08:59:57;;;;;;;363.63;343.57;;;;;;;;;;5052723;28;20431;-39
2023/12/24 09:02:24;;;;;;;363.63;343.10;;;;;;;;;;5045526;28;20633;-39
2023/12/24 09:04:52;;;;;;;368.37;348.43;;;;;;;;;;5033495;28;20467;-41
2023/12/24 09:07:20;;;;;;;369.40;348.70;;;;;;;;;;5047737;28;20486;-41
2023/12/24 09:09:48;;;;;;;365.07;344.67;;;;;;;;;;5044179;28;20476;-39
2023/12/24 09:12:16;;;;;;;369.67;349.37;;;;;;;;;;5052473;28;20439;-39
2023/12/24 09:14:43;;;;;;;365.07;345.20;;;;;;;;;;5042571;28;20525;-39
2023/12/24 09:17:12;;;;;;;358.80;338.93;;;;;;;;;;5043672;28;20469;-39
2023/12/24 09:19:40;;;;;;;359.03;339.03;;;;;;;;;;5047476;28;20875;-41
2023/12/24 09:22:07;;;;;;;360.63;340.20;;;;;;;;;;5039984;28;20475;-40
2023/12/24 09:24:35;;;;;;;364.23;343.27;;;;;;;;;;5045725;28;20545;-40
2023/12/24 09:27:02;;;;;;;373.67;352.53;;;;;;;;;;5049430;28;20887;-39
2023/12/24 09:29:30;;;;;;;364.57;343.60;;;;;;;;;;5035040;28;20472;-41
2023/12/24 09:31:57;;;;;;;340.90;320.70;;;;;;;;;;5051726;28;20463;-39
2023/12/24 09:34:26;;;;;;;360.63;339.20;;;;;;;;;;5051546;28;20528;-39
2023/12/24 09:36:54;;;;;;;357.17;335.93;;;;;;;;;;5043321;28;20439;-40
2023/12/24 09:39:21;;;;;;;353.50;332.20;;;;;;;;;;5046087;28;20436;-39
2023/12/24 09:41:49;;;;;;;364.33;343.30;;;;;;;;;;5039624;28;20514;-40
2023/12/24 09:44:17;;;;;;;372.17;350.43;;;;;;;;;;5044789;28;21038;-39
2023/12/24 09:46:45;;;;;;;373.90;352.03;;;;;;;;;;5041580;28;20439;-39
2023/12/24 09:49:12;;;;;;;377.77;354.63;;;;;;;;;;5039866;28;21044;-42
2023/12/24 09:51:43;;;;;;;361.77;339.80;;;;;;;;;;5048381;28;20439;-39
2023/12/24 09:54:10;;;;;;;370.30;347.23;;;;;;;;;;5048975;28;20577;-39
2023/12/24 09:56:38;;;;;;;367.03;344.20;;;;;;;;;;5033242;28;20468;-40
2023/12/24 09:59:05;;;;;;;369.97;345.97;;;;;;;;;;5051582;28;20454;-39
2023/12/24 10:01:41;;;;;;;373.43;349.07;;;;;;;;;;5051602;28;20439;-39
2023/12/24 10:04:09;;;;;;;371.60;347.03;;;;;;;;;;5051613;28;20956;-39
2023/12/24 10:06:52;;;;;;;379.57;355.00;;;;;;;;;;5042482;28;20821;-39
2023/12/24 10:09:22;;;;;;;390.23;364.80;;;;;;;;;;5051176;28;21005;-39
2023/12/24 10:12:06;;;;;;;404.30;378.53;;;;;;;;;;5040332;28;20447;-39
2023/12/24 10:14:33;;;;;;;407.00;382.70;;;;;;;;;;5050223;28;20958;-38
2023/12/24 10:17:01;;;;;;;419.50;390.83;;;;;;;;;;5034086;28;20500;-39
2023/12/24 10:19:29;;;;;;;415.33;384.40;;;;;;;;;;5035545;28;20846;-43
2023/12/24 10:21:59;;;;;;;411.97;383.33;;;;;;;;;;5044737;28;20435;-39
2023/12/24 10:24:29;;;;;;;415.93;387.20;;;;;;;;;;5041823;28;20985;-39
2023/12/24 10:27:03;;;;;;;423.30;393.63;;;;;;;;;;5048374;28;20915;-46
2023/12/24 10:29:31;;;;;;;409.20;379.80;;;;;;;;;;5045668;28;20974;-42
2023/12/24 10:31:59;;;;;;;425.60;395.93;;;;;;;;;;5041840;28;20481;-40
2023/12/24 10:34:27;;;;;;;425.77;395.80;;;;;;;;;;5049425;28;20470;-40
2023/12/24 10:36:55;;;;;;;431.73;403.53;;;;;;;;;;5041478;28;20443;-39
2023/12/24 10:39:25;;;;;;;422.17;392.97;;;;;;;;;;5050178;28;20914;-40
2023/12/24 10:41:56;;;;;;;430.77;402.27;;;;;;;;;;5050474;28;20439;-39
2023/12/24 10:44:24;;;;;;;419.63;388.73;;;;;;;;;;5049585;28;20966;-39
2023/12/24 10:46:52;;;;;;;429.77;399.77;;;;;;;;;;5050189;28;20807;-39
2023/12/24 10:49:19;;;;;;;428.67;398.93;;;;;;;;;;5050220;28;20490;-39
2023/12/24 10:51:47;;;;;;;426.27;397.63;;;;;;;;;;5049716;28;20905;-41
2023/12/24 10:54:15;;;;;;;422.40;392.40;;;;;;;;;;5049501;28;20490;-39
2023/12/24 10:56:55;;;;;;;425.60;398.30;;;;;;;;;;5041982;28;21175;-39
2023/12/24 10:59:31;;;;;;;421.43;391.67;;;;;;;;;;5043421;28;20447;-39
2023/12/24 11:01:59;;;;;;;422.17;393.97;;;;;;;;;;5048851;28;20450;-41
2023/12/24 11:04:42;;;;;;;426.43;397.40;;;;;;;;;;5048450;28;20459;-40
2023/12/24 11:07:10;;;;;;;405.70;375.73;;;;;;;;;;5042809;28;20848;-41
2023/12/24 11:09:42;;;;;;;408.10;378.00;;;;;;;;;;5044180;28;20481;-39
2023/12/24 11:12:26;;;;;;;414.17;385.67;;;;;;;;;;5048270;28;20454;-39
2023/12/24 11:14:55;;;;;;;425.17;393.57;;;;;;;;;;5048051;28;20554;-40
2023/12/24 11:17:41;;;;;;;417.23;389.07;;;;;;;;;;5043363;28;20441;-40
2023/12/24 11:20:29;;;;;;;429.17;398.10;;;;;;;;;;5021729;28;20440;-39
2023/12/24 11:23:12;;;;;;;432.10;403.90;;;;;;;;;;5045571;28;21019;-39
2023/12/24 11:25:41;;;;;;;411.60;382.00;;;;;;;;;;5037261;28;20459;-39
2023/12/24 11:28:12;;;;;;;453.77;423.07;;;;;;;;;;5044043;28;20544;-39
2023/12/24 11:30:59;;;;;;;432.30;402.57;;;;;;;;;;5045165;28;21082;-41
2023/12/24 11:33:47;;;;;;;429.40;400.30;;;;;;;;;;5032115;28;20467;-39
2023/12/24 11:36:15;;;;;;;438.30;409.40;;;;;;;;;;5033358;28;20463;-41
2023/12/24 11:38:45;;;;;;;437.43;408.60;;;;;;;;;;5047432;28;20526;-43
2023/12/24 11:41:18;;;;;;;410.40;381.80;;;;;;;;;;5033970;28;20526;-39
2023/12/24 11:43:53;;;;;;;424.20;395.20;;;;;;;;;;5048641;28;20585;-39
2023/12/24 11:46:22;;;;;;;415.77;387.47;;;;;;;;;;5037499;28;20467;-40
2023/12/24 11:48:51;;;;;;;416.50;384.93;;;;;;;;;;5048418;28;20867;-42
2023/12/24 11:51:22;;;;;;;412.43;383.37;;;;;;;;;;5042164;28;20463;-39
2023/12/24 11:53:57;;;;;;;409.20;378.60;;;;;;;;;;5048705;28;20467;-40
2023/12/24 11:56:25;;;;;;;404.67;374.10;;;;;;;;;;5033195;28;20464;-39
2023/12/24 11:58:59;;;;;;;416.00;387.07;;;;;;;;;;5039024;28;20443;-39
2023/12/24 12:01:27;;;;;;;402.93;374.50;;;;;;;;;;5049609;28;20462;-39
2023/12/24 12:03:57;;;;;;;404.43;374.33;;;;;;;;;;5047172;28;20475;-40
2023/12/24 12:06:25;;;;;;;423.87;393.33;;;;;;;;;;5036732;28;20468;-40
2023/12/24 12:08:54;;;;;;;431.83;401.50;;;;;;;;;;5047202;28;20776;-40
2023/12/24 12:11:21;;;;;;;438.23;408.03;;;;;;;;;;5043505;28;20883;-42
2023/12/24 12:13:49;;;;;;;441.93;412.10;;;;;;;;;;5036889;28;20459;-41
2023/12/24 12:16:16;;;;;;;419.50;390.80;;;;;;;;;;5044080;28;21049;-39
2023/12/24 12:18:44;;;;;;;423.30;393.50;;;;;;;;;;5046131;28;20443;-39
2023/12/24 12:21:13;;;;;;;400.20;369.97;;;;;;;;;;5029827;28;20489;-40
2023/12/24 12:23:41;;;;;;;414.13;385.57;;;;;;;;;;5044991;28;20488;-41
2023/12/24 12:26:09;;;;;;;413.17;383.57;;;;;;;;;;5040097;28;20868;-41
2023/12/24 12:28:37;;;;;;;404.37;375.50;;;;;;;;;;5047831;28;20454;-40
2023/12/24 12:31:05;;;;;;;416.20;387.30;;;;;;;;;;5052269;28;20475;-40
2023/12/24 12:33:32;;;;;;;422.23;395.53;;;;;;;;;;5044229;28;20463;-41
2023/12/24 12:36:02;;;;;;;422.37;393.97;;;;;;;;;;5052357;28;20498;-40
2023/12/24 12:38:31;;;;;;;421.37;392.70;;;;;;;;;;5052568;28;20467;-39
2023/12/24 12:40:59;;;;;;;424.97;397.73;;;;;;;;;;5052585;28;20443;-40
2023/12/24 12:43:27;;;;;;;430.30;402.90;;;;;;;;;;5043726;28;20499;-41
2023/12/24 12:45:54;;;;;;;422.93;395.87;;;;;;;;;;5034720;28;20521;-40
2023/12/24 12:48:22;;;;;;;435.40;407.33;;;;;;;;;;5038803;28;20447;-39
2023/12/24 12:50:50;;;;;;;433.10;406.07;;;;;;;;;;5039722;28;20563;-39
2023/12/24 12:53:24;;;;;;;419.27;392.10;;;;;;;;;;5046764;28;20529;-40
2023/12/24 12:56:02;;;;;;;428.70;401.47;;;;;;;;;;5048469;28;20861;-39
2023/12/24 12:58:30;;;;;;;427.03;399.93;;;;;;;;;;5051057;28;20439;-39
2023/12/24 13:00:58;;;;;;;425.33;397.53;;;;;;;;;;5041856;28;21036;-39
2023/12/24 13:03:25;;;;;;;427.00;399.20;;;;;;;;;;5050828;28;20459;-39
2023/12/24 13:05:54;;;;;;;437.03;409.47;;;;;;;;;;5049188;28;20462;-39
2023/12/24 13:08:22;;;;;;;429.40;401.83;;;;;;;;;;5030206;28;20439;-40
2023/12/24 13:10:50;;;;;;;424.23;396.47;;;;;;;;;;5046750;28;20471;-39
2023/12/24 13:13:20;;;;;;;424.67;396.73;;;;;;;;;;5042863;28;20826;-44
2023/12/24 13:15:49;;;;;;;407.70;379.80;;;;;;;;;;5049726;28;20906;-40
2023/12/24 13:18:17;;;;;;;420.93;393.13;;;;;;;;;;5034459;28;20432;-40
2023/12/24 13:20:45;;;;;;;426.50;398.30;;;;;;;;;;5043406;28;20781;-41
2023/12/24 13:23:13;;;;;;;415.93;387.27;;;;;;;;;;5049921;28;20617;-39
2023/12/24 13:25:41;;;;;;;421.57;391.47;;;;;;;;;;5049509;28;20467;-40
2023/12/24 13:28:09;;;;;;;424.87;397.33;;;;;;;;;;5048929;28;20471;-39
2023/12/24 13:30:37;;;;;;;420.00;391.67;;;;;;;;;;5048961;28;20482;-39
2023/12/24 13:33:05;;;;;;;431.40;403.93;;;;;;;;;;5040556;28;20455;-40
2023/12/24 13:35:35;;;;;;;420.27;392.90;;;;;;;;;;5041375;28;20463;-38
2023/12/24 13:38:03;;;;;;;415.37;387.73;;;;;;;;;;5032785;28;20440;-41
2023/12/24 13:40:31;;;;;;;418.93;390.73;;;;;;;;;;5043872;28;20471;-40
2023/12/24 13:43:00;;;;;;;413.03;385.30;;;;;;;;;;5038038;28;20519;-39
2023/12/24 13:45:28;;;;;;;411.23;382.80;;;;;;;;;;5041097;28;20506;-39
2023/12/24 13:47:58;;;;;;;413.83;385.47;;;;;;;;;;5041596;28;20431;-39
2023/12/24 13:50:27;;;;;;;408.63;380.23;;;;;;;;;;5049612;28;20470;-38
2023/12/24 13:52:55;;;;;;;414.13;384.00;;;;;;;;;;5048877;28;20459;-39
2023/12/24 13:55:23;;;;;;;414.27;385.77;;;;;;;;;;5047995;28;20466;-39
2023/12/24 13:57:51;;;;;;;429.33;399.97;;;;;;;;;;5048551;28;20435;-39
2023/12/24 14:00:19;;;;;;;431.40;402.63;;;;;;;;;;5045076;28;20446;-39